Accueil
METAR-TAF:

METAR-TAF

Aéroports :

Tunis, Tunisie

Aéroport international de Tunis-Carthage

latitude: 36-50N, longitude: 010-14E, altitude: 3 m

Observation

Le bulletin a été fait il y a 16 minutes, à 12:00 UTC
Vent 4 kt de sud/sud-est, variant entre est et sud/sud-ouest
Température 21°C
Humidité 35%
Pression 1015 hPa
Visibilité 10 km ou plus
Quelques nuages à une hauteur de 3300 ft

METAR: DTTA 121200Z 16004KT 100V210 9999 FEW033 21/05 Q1015 NOSIG

Heure: 13:16 (12:16 UTC)

Prévision

Le bulletin a été fait il y a 1 heure et 11 minutes, à 11:05 UTC
Prévision valable du 12 à 12 UTC au 13 à 12 UTC
Vent 6 kt de sud/sud-ouest
Visibilité 10 km ou plus
pas de nuages en-dessous de 1500 mètres et pas de cumulonimbus.
Evoluant progressivement
du 13 à 02 UTC au 13 à 04 UTC
Vent 14 kt de nord/nord-ouest
Visibilité 10 km ou plus
Nuages épars à une hauteur de 2300 ft

TAF: DTTA 121105Z 1212/1312 20006KT CAVOK BECMG 1302/1304 34014KT 9999 SCT023

Observations et prévisions météorologiques de plus de 4000 aéroports (messages METAR et TAF).

Les stations disponibles sont représentées par des disques jaunes et rouges sur la carte.

Passer la souris dessus pour voir le nom de la station.

Cliquer dessus pour voir les observations et prévisions météorologiques.

Pour changer de carte: cliquez sur les boutons verts avec une croix noire pour zoomer, sur le bouton vert avec un tiret pour effectuer un zoom arrière, ou sur les flèches vertes pour les cartes adjacentes.


METAR-TAF: